sensor_id;sensor_type;location;lat;lon;timestamp;P1;durP1;ratioP1;P2;durP2;ratioP2
74926;SDS011;63488;48.092;-1.640;2024-01-30T00:02:08;15.48;;;5.03;;
74926;SDS011;63488;48.092;-1.640;2024-01-30T00:04:33;16.17;;;5.80;;
74926;SDS011;63488;48.092;-1.640;2024-01-30T00:06:58;14.77;;;4.82;;
74926;SDS011;63488;48.092;-1.640;2024-01-30T00:09:24;14.63;;;5.28;;
74926;SDS011;63488;48.092;-1.640;2024-01-30T00:11:49;14.18;;;5.07;;
74926;SDS011;63488;48.092;-1.640;2024-01-30T00:14:14;10.70;;;4.80;;
74926;SDS011;63488;48.092;-1.640;2024-01-30T00:16:40;16.35;;;5.18;;
74926;SDS011;63488;48.092;-1.640;2024-01-30T00:19:05;13.32;;;4.47;;
74926;SDS011;63488;48.092;-1.640;2024-01-30T00:21:30;12.95;;;5.13;;
74926;SDS011;63488;48.092;-1.640;2024-01-30T00:23:56;13.07;;;5.78;;
74926;SDS011;63488;48.092;-1.640;2024-01-30T00:26:21;15.27;;;5.57;;
74926;SDS011;63488;48.092;-1.640;2024-01-30T00:28:46;15.05;;;5.45;;
74926;SDS011;63488;48.092;-1.640;2024-01-30T00:31:11;11.60;;;5.22;;
74926;SDS011;63488;48.092;-1.640;2024-01-30T00:33:40;10.85;;;4.80;;
74926;SDS011;63488;48.092;-1.640;2024-01-30T00:36:06;12.93;;;5.20;;
74926;SDS011;63488;48.092;-1.640;2024-01-30T00:38:32;13.10;;;5.20;;
74926;SDS011;63488;48.092;-1.640;2024-01-30T00:40:57;12.75;;;5.60;;
74926;SDS011;63488;48.092;-1.640;2024-01-30T00:43:23;15.23;;;5.80;;
74926;SDS011;63488;48.092;-1.640;2024-01-30T00:45:50;14.98;;;5.70;;
74926;SDS011;63488;48.092;-1.640;2024-01-30T00:48:17;16.42;;;5.63;;
74926;SDS011;63488;48.092;-1.640;2024-01-30T00:50:42;16.25;;;5.90;;
74926;SDS011;63488;48.092;-1.640;2024-01-30T00:53:07;14.75;;;5.35;;
74926;SDS011;63488;48.092;-1.640;2024-01-30T00:55:33;13.32;;;5.57;;
74926;SDS011;63488;48.092;-1.640;2024-01-30T00:57:58;12.60;;;5.10;;
74926;SDS011;63488;48.092;-1.640;2024-01-30T01:00:23;13.35;;;5.35;;
74926;SDS011;63488;48.092;-1.640;2024-01-30T01:02:54;16.50;;;6.07;;
74926;SDS011;63488;48.092;-1.640;2024-01-30T01:05:19;15.63;;;5.25;;
74926;SDS011;63488;48.092;-1.640;2024-01-30T01:07:44;13.63;;;5.65;;
74926;SDS011;63488;48.092;-1.640;2024-01-30T01:10:12;16.25;;;5.68;;
74926;SDS011;63488;48.092;-1.640;2024-01-30T01:12:38;16.38;;;5.10;;
74926;SDS011;63488;48.092;-1.640;2024-01-30T01:15:04;15.90;;;5.88;;
74926;SDS011;63488;48.092;-1.640;2024-01-30T01:17:30;14.48;;;5.35;;
74926;SDS011;63488;48.092;-1.640;2024-01-30T01:19:55;12.65;;;5.88;;
74926;SDS011;63488;48.092;-1.640;2024-01-30T01:22:20;11.77;;;4.82;;
74926;SDS011;63488;48.092;-1.640;2024-01-30T01:24:46;12.30;;;4.90;;
74926;SDS011;63488;48.092;-1.640;2024-01-30T01:27:11;14.05;;;5.30;;
74926;SDS011;63488;48.092;-1.640;2024-01-30T01:29:36;17.02;;;4.97;;
74926;SDS011;63488;48.092;-1.640;2024-01-30T01:32:02;10.43;;;4.97;;
74926;SDS011;63488;48.092;-1.640;2024-01-30T01:34:27;14.35;;;5.00;;
74926;SDS011;63488;48.092;-1.640;2024-01-30T01:36:52;12.75;;;5.00;;
74926;SDS011;63488;48.092;-1.640;2024-01-30T01:39:20;15.90;;;5.22;;
74926;SDS011;63488;48.092;-1.640;2024-01-30T01:41:46;12.07;;;4.78;;
74926;SDS011;63488;48.092;-1.640;2024-01-30T01:44:11;14.10;;;5.25;;
74926;SDS011;63488;48.092;-1.640;2024-01-30T01:46:37;12.20;;;4.45;;
74926;SDS011;63488;48.092;-1.640;2024-01-30T01:49:02;13.35;;;4.43;;
74926;SDS011;63488;48.092;-1.640;2024-01-30T01:51:29;14.07;;;4.95;;
74926;SDS011;63488;48.092;-1.640;2024-01-30T01:53:55;13.55;;;4.43;;
74926;SDS011;63488;48.092;-1.640;2024-01-30T01:56:22;15.80;;;4.93;;
74926;SDS011;63488;48.092;-1.640;2024-01-30T01:58:48;10.93;;;3.90;;
74926;SDS011;63488;48.092;-1.640;2024-01-30T02:01:14;15.95;;;4.55;;
74926;SDS011;63488;48.092;-1.640;2024-01-30T02:03:41;11.00;;;3.72;;
74926;SDS011;63488;48.092;-1.640;2024-01-30T02:06:07;13.45;;;4.03;;
74926;SDS011;63488;48.092;-1.640;2024-01-30T02:08:32;13.15;;;3.85;;
74926;SDS011;63488;48.092;-1.640;2024-01-30T02:10:58;8.60;;;3.67;;
74926;SDS011;63488;48.092;-1.640;2024-01-30T02:13:23;9.20;;;3.28;;
74926;SDS011;63488;48.092;-1.640;2024-01-30T02:15:49;11.45;;;3.58;;
74926;SDS011;63488;48.092;-1.640;2024-01-30T02:18:15;7.63;;;3.40;;
74926;SDS011;63488;48.092;-1.640;2024-01-30T02:20:40;9.32;;;3.13;;
74926;SDS011;63488;48.092;-1.640;2024-01-30T02:23:06;9.50;;;2.42;;
74926;SDS011;63488;48.092;-1.640;2024-01-30T02:25:42;7.22;;;2.35;;
74926;SDS011;63488;48.092;-1.640;2024-01-30T02:28:10;6.90;;;2.60;;
74926;SDS011;63488;48.092;-1.640;2024-01-30T02:30:35;6.50;;;1.75;;
74926;SDS011;63488;48.092;-1.640;2024-01-30T02:33:01;6.38;;;1.63;;
74926;SDS011;63488;48.092;-1.640;2024-01-30T02:35:26;4.13;;;1.13;;
74926;SDS011;63488;48.092;-1.640;2024-01-30T02:37:51;5.35;;;1.33;;
74926;SDS011;63488;48.092;-1.640;2024-01-30T02:40:17;6.00;;;1.25;;
74926;SDS011;63488;48.092;-1.640;2024-01-30T02:42:42;4.47;;;1.10;;
74926;SDS011;63488;48.092;-1.640;2024-01-30T02:45:09;3.20;;;0.85;;
74926;SDS011;63488;48.092;-1.640;2024-01-30T02:47:34;3.05;;;0.80;;
74926;SDS011;63488;48.092;-1.640;2024-01-30T02:50:00;4.20;;;1.05;;
74926;SDS011;63488;48.092;-1.640;2024-01-30T02:52:25;2.35;;;0.75;;
74926;SDS011;63488;48.092;-1.640;2024-01-30T02:54:50;3.03;;;0.90;;
74926;SDS011;63488;48.092;-1.640;2024-01-30T02:57:16;3.03;;;0.98;;
74926;SDS011;63488;48.092;-1.640;2024-01-30T02:59:41;5.18;;;1.10;;
74926;SDS011;63488;48.092;-1.640;2024-01-30T03:02:06;3.17;;;0.80;;
74926;SDS011;63488;48.092;-1.640;2024-01-30T03:04:32;2.75;;;0.85;;
74926;SDS011;63488;48.092;-1.640;2024-01-30T03:06:57;1.77;;;0.70;;
74926;SDS011;63488;48.092;-1.640;2024-01-30T03:09:23;3.00;;;0.85;;
74926;SDS011;63488;48.092;-1.640;2024-01-30T03:11:48;2.85;;;0.60;;
74926;SDS011;63488;48.092;-1.640;2024-01-30T03:14:13;2.35;;;0.85;;
74926;SDS011;63488;48.092;-1.640;2024-01-30T03:16:39;4.43;;;0.90;;
74926;SDS011;63488;48.092;-1.640;2024-01-30T03:19:05;2.92;;;0.65;;
74926;SDS011;63488;48.092;-1.640;2024-01-30T03:21:32;2.58;;;0.70;;
74926;SDS011;63488;48.092;-1.640;2024-01-30T03:23:58;3.97;;;0.70;;
74926;SDS011;63488;48.092;-1.640;2024-01-30T03:26:23;2.58;;;0.65;;
74926;SDS011;63488;48.092;-1.640;2024-01-30T03:28:48;2.03;;;0.70;;
74926;SDS011;63488;48.092;-1.640;2024-01-30T03:31:14;4.20;;;0.70;;
74926;SDS011;63488;48.092;-1.640;2024-01-30T03:33:39;3.60;;;0.68;;
74926;SDS011;63488;48.092;-1.640;2024-01-30T03:36:04;2.33;;;0.70;;
74926;SDS011;63488;48.092;-1.640;2024-01-30T03:38:30;6.00;;;0.65;;
74926;SDS011;63488;48.092;-1.640;2024-01-30T03:40:57;2.40;;;0.50;;
74926;SDS011;63488;48.092;-1.640;2024-01-30T03:43:23;2.97;;;0.60;;
74926;SDS011;63488;48.092;-1.640;2024-01-30T03:45:48;4.00;;;1.08;;
74926;SDS011;63488;48.092;-1.640;2024-01-30T03:48:13;1.85;;;0.68;;
74926;SDS011;63488;48.092;-1.640;2024-01-30T03:50:38;2.35;;;0.57;;
74926;SDS011;63488;48.092;-1.640;2024-01-30T03:53:04;3.83;;;0.70;;
74926;SDS011;63488;48.092;-1.640;2024-01-30T03:55:29;1.02;;;0.50;;
74926;SDS011;63488;48.092;-1.640;2024-01-30T03:57:54;3.13;;;0.85;;
74926;SDS011;63488;48.092;-1.640;2024-01-30T04:00:20;3.70;;;0.68;;
74926;SDS011;63488;48.092;-1.640;2024-01-30T04:02:45;1.27;;;0.40;;
74926;SDS011;63488;48.092;-1.640;2024-01-30T04:05:10;2.30;;;0.60;;
74926;SDS011;63488;48.092;-1.640;2024-01-30T04:07:35;3.20;;;0.50;;
74926;SDS011;63488;48.092;-1.640;2024-01-30T04:10:01;4.95;;;0.63;;
74926;SDS011;63488;48.092;-1.640;2024-01-30T04:12:26;2.67;;;0.60;;
74926;SDS011;63488;48.092;-1.640;2024-01-30T04:14:51;1.65;;;0.50;;
74926;SDS011;63488;48.092;-1.640;2024-01-30T04:17:17;4.15;;;0.50;;
74926;SDS011;63488;48.092;-1.640;2024-01-30T04:19:42;1.55;;;0.50;;
74926;SDS011;63488;48.092;-1.640;2024-01-30T04:22:07;3.50;;;0.68;;
74926;SDS011;63488;48.092;-1.640;2024-01-30T04:24:33;1.17;;;0.60;;
74926;SDS011;63488;48.092;-1.640;2024-01-30T04:26:58;3.15;;;0.45;;
74926;SDS011;63488;48.092;-1.640;2024-01-30T04:29:23;1.70;;;0.40;;
74926;SDS011;63488;48.092;-1.640;2024-01-30T04:31:49;2.55;;;0.47;;
74926;SDS011;63488;48.092;-1.640;2024-01-30T04:34:14;1.60;;;0.47;;
74926;SDS011;63488;48.092;-1.640;2024-01-30T04:36:39;2.38;;;0.35;;
74926;SDS011;63488;48.092;-1.640;2024-01-30T04:39:04;1.98;;;0.40;;
74926;SDS011;63488;48.092;-1.640;2024-01-30T04:41:30;2.15;;;0.40;;
74926;SDS011;63488;48.092;-1.640;2024-01-30T04:43:57;1.48;;;0.32;;
74926;SDS011;63488;48.092;-1.640;2024-01-30T04:46:22;1.60;;;0.45;;
74926;SDS011;63488;48.092;-1.640;2024-01-30T04:48:47;2.70;;;0.50;;
74926;SDS011;63488;48.092;-1.640;2024-01-30T04:51:12;1.73;;;0.40;;
74926;SDS011;63488;48.092;-1.640;2024-01-30T04:53:38;1.77;;;0.55;;
74926;SDS011;63488;48.092;-1.640;2024-01-30T04:56:05;1.95;;;0.43;;
74926;SDS011;63488;48.092;-1.640;2024-01-30T04:58:30;2.05;;;0.50;;
74926;SDS011;63488;48.092;-1.640;2024-01-30T05:00:55;1.75;;;0.30;;
74926;SDS011;63488;48.092;-1.640;2024-01-30T05:03:21;2.38;;;0.50;;
74926;SDS011;63488;48.092;-1.640;2024-01-30T05:05:47;1.77;;;0.40;;
74926;SDS011;63488;48.092;-1.640;2024-01-30T05:08:13;1.38;;;0.40;;
74926;SDS011;63488;48.092;-1.640;2024-01-30T05:10:38;1.05;;;0.20;;
74926;SDS011;63488;48.092;-1.640;2024-01-30T05:13:03;1.65;;;0.20;;
74926;SDS011;63488;48.092;-1.640;2024-01-30T05:15:29;0.63;;;0.17;;
74926;SDS011;63488;48.092;-1.640;2024-01-30T05:17:54;1.55;;;0.30;;
74926;SDS011;63488;48.092;-1.640;2024-01-30T05:20:20;1.55;;;0.43;;
74926;SDS011;63488;48.092;-1.640;2024-01-30T05:22:45;0.60;;;0.20;;
74926;SDS011;63488;48.092;-1.640;2024-01-30T05:25:12;1.85;;;0.38;;
74926;SDS011;63488;48.092;-1.640;2024-01-30T05:27:37;2.85;;;0.40;;
74926;SDS011;63488;48.092;-1.640;2024-01-30T05:30:03;1.63;;;0.20;;
74926;SDS011;63488;48.092;-1.640;2024-01-30T05:32:28;0.65;;;0.20;;
74926;SDS011;63488;48.092;-1.640;2024-01-30T05:34:53;3.15;;;0.38;;
74926;SDS011;63488;48.092;-1.640;2024-01-30T05:37:19;1.65;;;0.30;;
74926;SDS011;63488;48.092;-1.640;2024-01-30T05:39:44;1.08;;;0.30;;
74926;SDS011;63488;48.092;-1.640;2024-01-30T05:42:10;0.82;;;0.30;;
74926;SDS011;63488;48.092;-1.640;2024-01-30T05:44:35;1.63;;;0.30;;
74926;SDS011;63488;48.092;-1.640;2024-01-30T05:47:00;1.45;;;0.55;;
74926;SDS011;63488;48.092;-1.640;2024-01-30T05:49:26;1.33;;;0.30;;
74926;SDS011;63488;48.092;-1.640;2024-01-30T05:51:51;0.82;;;0.30;;
74926;SDS011;63488;48.092;-1.640;2024-01-30T05:54:16;0.88;;;0.20;;
74926;SDS011;63488;48.092;-1.640;2024-01-30T05:56:41;0.30;;;0.30;;
74926;SDS011;63488;48.092;-1.640;2024-01-30T05:59:07;0.45;;;0.30;;
74926;SDS011;63488;48.092;-1.640;2024-01-30T06:01:33;0.40;;;0.30;;
74926;SDS011;63488;48.092;-1.640;2024-01-30T06:04:00;1.35;;;0.52;;
74926;SDS011;63488;48.092;-1.640;2024-01-30T06:06:27;0.70;;;0.60;;
74926;SDS011;63488;48.092;-1.640;2024-01-30T06:08:55;1.08;;;0.60;;
74926;SDS011;63488;48.092;-1.640;2024-01-30T06:11:22;2.95;;;0.63;;
74926;SDS011;63488;48.092;-1.640;2024-01-30T06:13:48;1.42;;;0.60;;
74926;SDS011;63488;48.092;-1.640;2024-01-30T06:16:15;0.65;;;0.32;;
74926;SDS011;63488;48.092;-1.640;2024-01-30T06:18:42;0.73;;;0.35;;
74926;SDS011;63488;48.092;-1.640;2024-01-30T06:21:07;0.60;;;0.40;;
74926;SDS011;63488;48.092;-1.640;2024-01-30T06:23:32;1.08;;;0.43;;
74926;SDS011;63488;48.092;-1.640;2024-01-30T06:25:58;1.17;;;0.55;;
74926;SDS011;63488;48.092;-1.640;2024-01-30T06:28:23;2.85;;;0.50;;
74926;SDS011;63488;48.092;-1.640;2024-01-30T06:30:48;0.43;;;0.40;;
74926;SDS011;63488;48.092;-1.640;2024-01-30T06:33:14;2.15;;;0.50;;
74926;SDS011;63488;48.092;-1.640;2024-01-30T06:35:40;0.60;;;0.40;;
74926;SDS011;63488;48.092;-1.640;2024-01-30T06:38:05;0.60;;;0.43;;
74926;SDS011;63488;48.092;-1.640;2024-01-30T06:40:31;0.70;;;0.30;;
74926;SDS011;63488;48.092;-1.640;2024-01-30T06:42:56;1.02;;;0.40;;
74926;SDS011;63488;48.092;-1.640;2024-01-30T06:45:22;1.13;;;0.40;;
74926;SDS011;63488;48.092;-1.640;2024-01-30T06:47:47;0.68;;;0.40;;
74926;SDS011;63488;48.092;-1.640;2024-01-30T06:50:12;1.83;;;0.40;;
74926;SDS011;63488;48.092;-1.640;2024-01-30T06:52:38;0.80;;;0.45;;
74926;SDS011;63488;48.092;-1.640;2024-01-30T06:55:03;1.95;;;0.40;;
74926;SDS011;63488;48.092;-1.640;2024-01-30T06:57:29;0.68;;;0.38;;
74926;SDS011;63488;48.092;-1.640;2024-01-30T06:59:55;0.65;;;0.50;;
74926;SDS011;63488;48.092;-1.640;2024-01-30T07:02:21;0.50;;;0.50;;
74926;SDS011;63488;48.092;-1.640;2024-01-30T07:04:46;0.52;;;0.40;;
74926;SDS011;63488;48.092;-1.640;2024-01-30T07:07:12;0.60;;;0.60;;
74926;SDS011;63488;48.092;-1.640;2024-01-30T07:09:38;0.77;;;0.50;;
74926;SDS011;63488;48.092;-1.640;2024-01-30T07:12:04;0.60;;;0.60;;
74926;SDS011;63488;48.092;-1.640;2024-01-30T07:14:29;1.67;;;0.60;;
74926;SDS011;63488;48.092;-1.640;2024-01-30T07:16:54;0.77;;;0.50;;
74926;SDS011;63488;48.092;-1.640;2024-01-30T07:19:20;2.08;;;0.80;;
74926;SDS011;63488;48.092;-1.640;2024-01-30T07:21:45;2.45;;;0.75;;
74926;SDS011;63488;48.092;-1.640;2024-01-30T07:24:11;2.05;;;0.70;;
74926;SDS011;63488;48.092;-1.640;2024-01-30T07:26:37;1.45;;;0.73;;
74926;SDS011;63488;48.092;-1.640;2024-01-30T07:29:02;2.15;;;1.05;;
74926;SDS011;63488;48.092;-1.640;2024-01-30T07:31:28;1.98;;;1.05;;
74926;SDS011;63488;48.092;-1.640;2024-01-30T07:33:53;1.50;;;0.68;;
74926;SDS011;63488;48.092;-1.640;2024-01-30T07:36:19;3.17;;;0.90;;
74926;SDS011;63488;48.092;-1.640;2024-01-30T07:38:45;2.55;;;0.90;;
74926;SDS011;63488;48.092;-1.640;2024-01-30T07:41:10;2.97;;;1.00;;
74926;SDS011;63488;48.092;-1.640;2024-01-30T07:43:35;1.98;;;1.00;;
74926;SDS011;63488;48.092;-1.640;2024-01-30T07:46:01;1.58;;;0.80;;
74926;SDS011;63488;48.092;-1.640;2024-01-30T07:48:27;2.53;;;1.05;;
74926;SDS011;63488;48.092;-1.640;2024-01-30T07:50:53;2.75;;;1.20;;
74926;SDS011;63488;48.092;-1.640;2024-01-30T07:53:18;2.95;;;1.10;;
74926;SDS011;63488;48.092;-1.640;2024-01-30T07:55:53;1.00;;;0.80;;
74926;SDS011;63488;48.092;-1.640;2024-01-30T07:58:18;2.70;;;1.50;;
74926;SDS011;63488;48.092;-1.640;2024-01-30T08:00:44;3.58;;;1.48;;
74926;SDS011;63488;48.092;-1.640;2024-01-30T08:03:10;2.22;;;0.90;;
74926;SDS011;63488;48.092;-1.640;2024-01-30T08:05:35;1.92;;;0.93;;
74926;SDS011;63488;48.092;-1.640;2024-01-30T08:08:00;1.92;;;0.77;;
74926;SDS011;63488;48.092;-1.640;2024-01-30T08:10:26;0.70;;;0.70;;
74926;SDS011;63488;48.092;-1.640;2024-01-30T08:12:51;1.10;;;0.70;;
74926;SDS011;63488;48.092;-1.640;2024-01-30T08:15:16;1.95;;;0.90;;
74926;SDS011;63488;48.092;-1.640;2024-01-30T08:17:42;1.30;;;0.90;;
74926;SDS011;63488;48.092;-1.640;2024-01-30T08:20:07;2.13;;;0.80;;
74926;SDS011;63488;48.092;-1.640;2024-01-30T08:22:38;1.83;;;1.00;;
74926;SDS011;63488;48.092;-1.640;2024-01-30T08:25:03;4.72;;;1.08;;
74926;SDS011;63488;48.092;-1.640;2024-01-30T08:27:29;7.35;;;4.10;;
74926;SDS011;63488;48.092;-1.640;2024-01-30T08:29:54;2.53;;;1.20;;
74926;SDS011;63488;48.092;-1.640;2024-01-30T08:32:19;4.03;;;1.10;;
74926;SDS011;63488;48.092;-1.640;2024-01-30T08:34:45;1.13;;;0.90;;
74926;SDS011;63488;48.092;-1.640;2024-01-30T08:37:10;1.35;;;1.00;;
74926;SDS011;63488;48.092;-1.640;2024-01-30T08:39:36;3.22;;;1.40;;
74926;SDS011;63488;48.092;-1.640;2024-01-30T08:42:01;3.40;;;1.10;;
74926;SDS011;63488;48.092;-1.640;2024-01-30T08:44:26;2.38;;;1.00;;
74926;SDS011;63488;48.092;-1.640;2024-01-30T08:46:52;1.75;;;1.10;;
74926;SDS011;63488;48.092;-1.640;2024-01-30T08:49:19;1.58;;;1.00;;
74926;SDS011;63488;48.092;-1.640;2024-01-30T08:51:45;22.20;;;20.00;;
74926;SDS011;63488;48.092;-1.640;2024-01-30T08:54:10;3.97;;;1.17;;
74926;SDS011;63488;48.092;-1.640;2024-01-30T08:56:36;2.47;;;1.20;;
74926;SDS011;63488;48.092;-1.640;2024-01-30T08:59:01;1.85;;;1.20;;
74926;SDS011;63488;48.092;-1.640;2024-01-30T09:01:26;3.85;;;1.23;;
74926;SDS011;63488;48.092;-1.640;2024-01-30T09:03:52;2.00;;;1.00;;
74926;SDS011;63488;48.092;-1.640;2024-01-30T09:06:18;3.35;;;1.10;;
74926;SDS011;63488;48.092;-1.640;2024-01-30T09:08:43;2.13;;;0.90;;
74926;SDS011;63488;48.092;-1.640;2024-01-30T09:11:12;3.05;;;1.00;;
74926;SDS011;63488;48.092;-1.640;2024-01-30T09:13:38;1.75;;;1.23;;
74926;SDS011;63488;48.092;-1.640;2024-01-30T09:16:03;2.15;;;1.30;;
74926;SDS011;63488;48.092;-1.640;2024-01-30T09:18:29;2.15;;;1.08;;
74926;SDS011;63488;48.092;-1.640;2024-01-30T09:20:54;1.88;;;0.90;;
74926;SDS011;63488;48.092;-1.640;2024-01-30T09:23:19;1.75;;;1.13;;
74926;SDS011;63488;48.092;-1.640;2024-01-30T09:25:45;3.38;;;1.15;;
74926;SDS011;63488;48.092;-1.640;2024-01-30T09:28:10;1.95;;;0.95;;
74926;SDS011;63488;48.092;-1.640;2024-01-30T09:30:36;3.30;;;1.00;;
74926;SDS011;63488;48.092;-1.640;2024-01-30T09:33:01;3.30;;;1.00;;
74926;SDS011;63488;48.092;-1.640;2024-01-30T09:35:27;2.03;;;1.05;;
74926;SDS011;63488;48.092;-1.640;2024-01-30T09:37:52;2.92;;;1.00;;
74926;SDS011;63488;48.092;-1.640;2024-01-30T09:40:18;2.20;;;1.10;;
74926;SDS011;63488;48.092;-1.640;2024-01-30T09:42:45;1.92;;;1.00;;
74926;SDS011;63488;48.092;-1.640;2024-01-30T09:45:11;1.50;;;1.00;;
74926;SDS011;63488;48.092;-1.640;2024-01-30T09:47:41;2.20;;;1.10;;
74926;SDS011;63488;48.092;-1.640;2024-01-30T09:50:11;1.55;;;1.10;;
74926;SDS011;63488;48.092;-1.640;2024-01-30T09:52:37;1.83;;;0.93;;
74926;SDS011;63488;48.092;-1.640;2024-01-30T09:55:02;1.33;;;0.80;;
74926;SDS011;63488;48.092;-1.640;2024-01-30T09:57:28;1.38;;;0.88;;
74926;SDS011;63488;48.092;-1.640;2024-01-30T09:59:53;2.13;;;1.20;;
74926;SDS011;63488;48.092;-1.640;2024-01-30T10:02:22;3.33;;;0.90;;
74926;SDS011;63488;48.092;-1.640;2024-01-30T10:04:47;0.68;;;0.60;;
74926;SDS011;63488;48.092;-1.640;2024-01-30T10:07:13;1.52;;;0.70;;
74926;SDS011;63488;48.092;-1.640;2024-01-30T10:09:39;1.73;;;0.68;;
74926;SDS011;63488;48.092;-1.640;2024-01-30T10:12:05;2.28;;;0.88;;
74926;SDS011;63488;48.092;-1.640;2024-01-30T10:14:30;1.13;;;0.60;;
74926;SDS011;63488;48.092;-1.640;2024-01-30T10:16:57;4.85;;;0.88;;
74926;SDS011;63488;48.092;-1.640;2024-01-30T10:19:22;1.20;;;0.80;;
74926;SDS011;63488;48.092;-1.640;2024-01-30T10:21:47;1.73;;;0.73;;
74926;SDS011;63488;48.092;-1.640;2024-01-30T10:24:13;3.47;;;0.77;;
74926;SDS011;63488;48.092;-1.640;2024-01-30T10:26:39;3.63;;;0.98;;
74926;SDS011;63488;48.092;-1.640;2024-01-30T10:29:04;2.13;;;0.70;;
74926;SDS011;63488;48.092;-1.640;2024-01-30T10:31:30;1.42;;;0.60;;
74926;SDS011;63488;48.092;-1.640;2024-01-30T10:33:56;2.95;;;0.90;;
74926;SDS011;63488;48.092;-1.640;2024-01-30T10:36:21;2.28;;;0.60;;
74926;SDS011;63488;48.092;-1.640;2024-01-30T10:38:49;1.65;;;0.60;;
74926;SDS011;63488;48.092;-1.640;2024-01-30T10:41:16;2.05;;;0.50;;
74926;SDS011;63488;48.092;-1.640;2024-01-30T10:43:44;2.28;;;0.73;;
74926;SDS011;63488;48.092;-1.640;2024-01-30T10:46:19;1.70;;;0.77;;
74926;SDS011;63488;48.092;-1.640;2024-01-30T10:48:49;1.70;;;0.60;;
74926;SDS011;63488;48.092;-1.640;2024-01-30T10:51:15;1.20;;;0.50;;
74926;SDS011;63488;48.092;-1.640;2024-01-30T10:53:41;2.70;;;0.80;;
74926;SDS011;63488;48.092;-1.640;2024-01-30T10:56:08;2.60;;;0.70;;
74926;SDS011;63488;48.092;-1.640;2024-01-30T10:58:35;1.50;;;0.93;;
74926;SDS011;63488;48.092;-1.640;2024-01-30T11:01:00;1.60;;;0.50;;
74926;SDS011;63488;48.092;-1.640;2024-01-30T11:03:26;2.38;;;0.75;;
74926;SDS011;63488;48.092;-1.640;2024-01-30T11:05:51;2.97;;;0.70;;
74926;SDS011;63488;48.092;-1.640;2024-01-30T11:08:26;2.58;;;0.77;;
74926;SDS011;63488;48.092;-1.640;2024-01-30T11:10:56;1.77;;;0.70;;
74926;SDS011;63488;48.092;-1.640;2024-01-30T11:13:31;2.75;;;0.80;;
74926;SDS011;63488;48.092;-1.640;2024-01-30T11:16:05;2.25;;;0.73;;
74926;SDS011;63488;48.092;-1.640;2024-01-30T11:18:31;0.90;;;0.80;;
74926;SDS011;63488;48.092;-1.640;2024-01-30T11:20:57;2.53;;;1.15;;
74926;SDS011;63488;48.092;-1.640;2024-01-30T11:23:23;2.03;;;0.98;;
74926;SDS011;63488;48.092;-1.640;2024-01-30T11:25:48;1.60;;;0.70;;
74926;SDS011;63488;48.092;-1.640;2024-01-30T11:28:14;1.90;;;0.80;;
74926;SDS011;63488;48.092;-1.640;2024-01-30T11:30:43;1.23;;;0.50;;
74926;SDS011;63488;48.092;-1.640;2024-01-30T11:33:12;1.60;;;0.40;;
74926;SDS011;63488;48.092;-1.640;2024-01-30T11:35:38;0.70;;;0.70;;
74926;SDS011;63488;48.092;-1.640;2024-01-30T11:38:04;1.55;;;0.57;;
74926;SDS011;63488;48.092;-1.640;2024-01-30T11:40:31;1.23;;;0.80;;
74926;SDS011;63488;48.092;-1.640;2024-01-30T11:42:58;2.45;;;0.80;;
74926;SDS011;63488;48.092;-1.640;2024-01-30T11:45:24;1.33;;;0.65;;
74926;SDS011;63488;48.092;-1.640;2024-01-30T11:47:49;0.93;;;0.38;;
74926;SDS011;63488;48.092;-1.640;2024-01-30T11:50:14;1.05;;;0.30;;
74926;SDS011;63488;48.092;-1.640;2024-01-30T11:52:40;1.52;;;0.25;;
74926;SDS011;63488;48.092;-1.640;2024-01-30T11:55:06;3.05;;;0.60;;
74926;SDS011;63488;48.092;-1.640;2024-01-30T11:57:33;2.33;;;0.63;;
74926;SDS011;63488;48.092;-1.640;2024-01-30T12:00:00;2.17;;;0.50;;
74926;SDS011;63488;48.092;-1.640;2024-01-30T12:02:25;1.40;;;0.40;;
74926;SDS011;63488;48.092;-1.640;2024-01-30T12:04:50;4.03;;;0.50;;
74926;SDS011;63488;48.092;-1.640;2024-01-30T12:07:16;2.72;;;0.60;;
74926;SDS011;63488;48.092;-1.640;2024-01-30T12:09:41;1.10;;;0.40;;
74926;SDS011;63488;48.092;-1.640;2024-01-30T12:12:07;1.13;;;0.40;;
74926;SDS011;63488;48.092;-1.640;2024-01-30T12:14:37;1.45;;;0.30;;
74926;SDS011;63488;48.092;-1.640;2024-01-30T12:17:02;1.38;;;0.55;;
74926;SDS011;63488;48.092;-1.640;2024-01-30T12:19:28;1.83;;;0.65;;
74926;SDS011;63488;48.092;-1.640;2024-01-30T12:21:55;1.50;;;0.90;;
74926;SDS011;63488;48.092;-1.640;2024-01-30T12:24:22;2.78;;;0.63;;
74926;SDS011;63488;48.092;-1.640;2024-01-30T12:26:48;1.58;;;0.50;;
74926;SDS011;63488;48.092;-1.640;2024-01-30T12:29:14;2.03;;;0.60;;
74926;SDS011;63488;48.092;-1.640;2024-01-30T12:31:41;2.35;;;0.77;;
74926;SDS011;63488;48.092;-1.640;2024-01-30T12:34:07;2.80;;;0.82;;
74926;SDS011;63488;48.092;-1.640;2024-01-30T12:36:32;2.15;;;0.52;;
74926;SDS011;63488;48.092;-1.640;2024-01-30T12:38:57;1.60;;;0.52;;
74926;SDS011;63488;48.092;-1.640;2024-01-30T12:41:23;2.92;;;0.57;;
74926;SDS011;63488;48.092;-1.640;2024-01-30T12:46:18;1.00;;;0.40;;
74926;SDS011;63488;48.092;-1.640;2024-01-30T12:48:43;1.45;;;0.40;;
74926;SDS011;63488;48.092;-1.640;2024-01-30T12:51:08;1.55;;;0.40;;
74926;SDS011;63488;48.092;-1.640;2024-01-30T12:53:34;1.38;;;0.50;;
74926;SDS011;63488;48.092;-1.640;2024-01-30T12:55:59;1.33;;;0.30;;
74926;SDS011;63488;48.092;-1.640;2024-01-30T12:58:25;1.40;;;0.47;;
74926;SDS011;63488;48.092;-1.640;2024-01-30T13:00:50;11.07;;;0.52;;
74926;SDS011;63488;48.092;-1.640;2024-01-30T13:03:15;1.92;;;0.60;;
74926;SDS011;63488;48.092;-1.640;2024-01-30T13:05:41;3.47;;;0.60;;
74926;SDS011;63488;48.092;-1.640;2024-01-30T13:08:06;2.33;;;0.70;;
74926;SDS011;63488;48.092;-1.640;2024-01-30T13:10:31;1.55;;;0.65;;
74926;SDS011;63488;48.092;-1.640;2024-01-30T13:12:57;2.03;;;0.47;;
74926;SDS011;63488;48.092;-1.640;2024-01-30T13:15:22;1.30;;;0.45;;
74926;SDS011;63488;48.092;-1.640;2024-01-30T13:17:49;0.85;;;0.30;;
74926;SDS011;63488;48.092;-1.640;2024-01-30T13:20:15;2.17;;;0.50;;
74926;SDS011;63488;48.092;-1.640;2024-01-30T13:22:47;1.02;;;0.30;;
74926;SDS011;63488;48.092;-1.640;2024-01-30T13:25:12;1.17;;;0.35;;
74926;SDS011;63488;48.092;-1.640;2024-01-30T13:27:37;2.13;;;0.50;;
74926;SDS011;63488;48.092;-1.640;2024-01-30T13:30:03;2.55;;;0.40;;
74926;SDS011;63488;48.092;-1.640;2024-01-30T13:32:30;1.02;;;0.40;;
74926;SDS011;63488;48.092;-1.640;2024-01-30T13:34:55;0.95;;;0.73;;
74926;SDS011;63488;48.092;-1.640;2024-01-30T13:37:21;2.88;;;0.38;;
74926;SDS011;63488;48.092;-1.640;2024-01-30T13:39:47;1.92;;;0.40;;
74926;SDS011;63488;48.092;-1.640;2024-01-30T13:42:12;0.90;;;0.17;;
74926;SDS011;63488;48.092;-1.640;2024-01-30T13:44:37;1.35;;;0.30;;
74926;SDS011;63488;48.092;-1.640;2024-01-30T13:47:03;0.63;;;0.28;;
74926;SDS011;63488;48.092;-1.640;2024-01-30T13:49:29;0.40;;;0.30;;
74926;SDS011;63488;48.092;-1.640;2024-01-30T13:51:54;1.77;;;0.38;;
74926;SDS011;63488;48.092;-1.640;2024-01-30T13:54:19;1.58;;;0.28;;
74926;SDS011;63488;48.092;-1.640;2024-01-30T13:56:45;0.80;;;0.20;;
74926;SDS011;63488;48.092;-1.640;2024-01-30T13:59:10;0.70;;;0.30;;
74926;SDS011;63488;48.092;-1.640;2024-01-30T14:01:35;0.90;;;0.20;;
74926;SDS011;63488;48.092;-1.640;2024-01-30T14:04:01;0.47;;;0.30;;
74926;SDS011;63488;48.092;-1.640;2024-01-30T14:06:26;1.65;;;0.30;;
74926;SDS011;63488;48.092;-1.640;2024-01-30T14:08:52;1.50;;;0.50;;
74926;SDS011;63488;48.092;-1.640;2024-01-30T14:11:17;1.25;;;0.32;;
74926;SDS011;63488;48.092;-1.640;2024-01-30T14:13:43;1.38;;;0.40;;
74926;SDS011;63488;48.092;-1.640;2024-01-30T14:16:08;0.77;;;0.35;;
74926;SDS011;63488;48.092;-1.640;2024-01-30T14:18:34;0.45;;;0.13;;
74926;SDS011;63488;48.092;-1.640;2024-01-30T14:21:00;1.13;;;0.30;;
74926;SDS011;63488;48.092;-1.640;2024-01-30T14:23:25;1.23;;;0.40;;
74926;SDS011;63488;48.092;-1.640;2024-01-30T14:25:50;1.08;;;0.20;;
74926;SDS011;63488;48.092;-1.640;2024-01-30T14:28:16;1.95;;;0.30;;